createdAt,value
2023-01-10T00:01:19.019Z,92.52
2023-01-10T00:03:45.673Z,92.62
2023-01-10T00:06:24.205Z,92.87
2023-01-10T00:08:57.411Z,92.68
2023-01-10T00:11:58.496Z,92.50
2023-01-10T00:14:41.400Z,92.40
2023-01-10T00:17:08.197Z,92.18
2023-01-10T00:19:34.986Z,92.31
2023-01-10T00:22:12.286Z,91.82
2023-01-10T00:24:45.321Z,92.05
2023-01-10T00:27:19.279Z,91.58
2023-01-10T00:29:47.028Z,91.79
2023-01-10T00:32:20.351Z,92.16
2023-01-10T00:34:53.410Z,92.10
2023-01-10T00:37:26.287Z,91.95
2023-01-10T00:39:59.402Z,91.84
2023-01-10T00:42:51.567Z,91.68
2023-01-10T00:45:20.040Z,91.88
2023-01-10T00:47:53.379Z,91.67
2023-01-10T00:50:20.145Z,91.86
2023-01-10T00:52:53.284Z,91.73
2023-01-10T00:55:19.985Z,91.72
2023-01-10T00:57:53.271Z,91.50
2023-01-10T01:00:26.313Z,91.59
2023-01-10T01:02:53.103Z,91.17
2023-01-10T01:05:26.283Z,91.28
2023-01-10T01:07:53.317Z,91.03
2023-01-10T01:10:35.358Z,91.05
2023-01-10T01:13:21.126Z,91.23
2023-01-10T01:15:58.607Z,91.05
2023-01-10T01:18:26.048Z,90.99
2023-01-10T01:21:09.688Z,90.96
2023-01-10T01:23:36.565Z,91.26
2023-01-10T01:26:10.892Z,91.06
2023-01-10T01:28:38.195Z,91.12
2023-01-10T01:31:19.582Z,91.11
2023-01-10T01:33:46.824Z,90.99
2023-01-10T01:36:20.363Z,90.86
2023-01-10T01:38:46.971Z,91.09
2023-01-10T01:41:44.359Z,90.65
2023-01-10T01:44:23.417Z,90.80
2023-01-10T01:47:34.441Z,91.08
2023-01-10T01:50:08.421Z,91.14
2023-01-10T01:52:37.480Z,90.95
2023-01-10T01:55:12.402Z,91.11
2023-01-10T01:57:42.831Z,90.96
2023-01-10T02:00:17.494Z,91.14
2023-01-10T02:03:02.216Z,91.10
2023-01-10T02:05:40.499Z,91.20
2023-01-10T02:08:07.207Z,90.64
2023-01-10T02:11:04.567Z,90.99
2023-01-10T02:13:40.660Z,90.97
2023-01-10T02:16:26.069Z,90.97
2023-01-10T02:18:59.480Z,90.74
2023-01-10T02:21:47.541Z,90.52
2023-01-10T02:24:39.418Z,91.06
2023-01-10T02:27:32.457Z,90.93
2023-01-10T02:30:44.570Z,90.88
2023-01-10T02:33:34.365Z,90.93
2023-01-10T02:36:31.602Z,90.87
2023-01-10T02:39:12.383Z,90.72
2023-01-10T02:42:00.381Z,90.60
2023-01-10T02:44:36.035Z,90.59
2023-01-10T02:47:10.298Z,90.79
2023-01-10T02:49:49.035Z,90.78
2023-01-10T02:52:28.420Z,91.01
2023-01-10T02:55:08.355Z,90.98
2023-01-10T02:58:03.317Z,90.77
2023-01-10T03:00:42.273Z,90.93
2023-01-10T03:03:42.412Z,91.11
2023-01-10T03:06:25.207Z,90.65
2023-01-10T03:09:05.509Z,90.68
2023-01-10T03:11:51.477Z,90.50
2023-01-10T03:14:38.900Z,90.33
2023-01-10T03:17:17.397Z,90.70
2023-01-10T03:19:50.250Z,90.96
2023-01-10T03:22:24.416Z,90.88
2023-01-10T03:24:54.624Z,90.78
2023-01-10T03:27:46.474Z,91.16
2023-01-10T03:30:20.109Z,91.17
2023-01-10T03:32:53.382Z,91.09
2023-01-10T03:35:23.391Z,91.04
2023-01-10T03:38:04.524Z,91.05
2023-01-10T03:41:01.910Z,91.28
2023-01-10T03:44:06.441Z,90.88
2023-01-10T03:46:44.366Z,91.02
2023-01-10T03:49:20.366Z,90.76
2023-01-10T03:51:55.398Z,90.80
2023-01-10T03:54:22.093Z,90.69
2023-01-10T03:56:58.448Z,90.82
2023-01-10T03:59:27.516Z,90.49
2023-01-10T04:02:02.742Z,90.31
2023-01-10T04:04:36.527Z,90.54
2023-01-10T04:07:13.015Z,90.82
2023-01-10T04:09:40.119Z,90.36
2023-01-10T04:12:13.509Z,90.80
2023-01-10T04:14:53.493Z,91.12
2023-01-10T04:17:27.525Z,90.95
2023-01-10T04:20:01.473Z,90.98
2023-01-10T04:22:34.505Z,91.03
2023-01-10T04:25:01.412Z,91.06
2023-01-10T04:27:34.436Z,90.92
2023-01-10T04:30:07.383Z,91.13
2023-01-10T04:32:40.563Z,90.77
2023-01-10T04:35:14.708Z,90.70
2023-01-10T04:37:41.507Z,90.83
2023-01-10T04:40:15.427Z,91.08
2023-01-10T04:42:48.515Z,90.85
2023-01-10T04:45:24.401Z,91.06
2023-01-10T04:47:52.185Z,91.20
2023-01-10T04:50:25.398Z,91.01
2023-01-10T04:52:52.845Z,90.86
2023-01-10T04:55:26.386Z,90.95
2023-01-10T04:57:53.232Z,90.96
2023-01-10T05:00:26.515Z,90.97
2023-01-10T05:03:03.046Z,91.24
2023-01-10T05:05:37.568Z,90.98
2023-01-10T05:08:11.424Z,91.25
2023-01-10T05:10:38.498Z,91.30
2023-01-10T05:13:18.513Z,90.96
2023-01-10T05:15:54.990Z,91.21
2023-01-10T05:18:28.468Z,91.37
2023-01-10T05:21:16.102Z,90.97
2023-01-10T05:23:50.396Z,90.98
2023-01-10T05:26:35.831Z,91.10
2023-01-10T05:29:02.579Z,91.27
2023-01-10T05:31:44.268Z,91.13
2023-01-10T05:34:20.447Z,91.20
2023-01-10T05:36:47.379Z,91.19
2023-01-10T05:39:20.455Z,91.28
2023-01-10T05:41:54.385Z,91.26
2023-01-10T05:44:27.465Z,91.35
2023-01-10T05:46:57.282Z,91.29
2023-01-10T05:49:30.465Z,91.30
2023-01-10T05:51:57.129Z,91.35
2023-01-10T05:54:30.668Z,91.74
2023-01-10T05:57:05.059Z,91.78
2023-01-10T05:59:38.557Z,91.37
2023-01-10T06:02:13.549Z,91.49
2023-01-10T06:04:40.939Z,91.62
2023-01-10T06:07:14.495Z,91.29
2023-01-10T06:09:41.351Z,91.42
2023-01-10T06:12:14.631Z,91.81
2023-01-10T06:14:47.792Z,91.55
2023-01-10T06:17:24.478Z,91.74
2023-01-10T06:19:52.579Z,91.59
2023-01-10T06:22:25.491Z,91.66
2023-01-10T06:24:58.639Z,91.62
2023-01-10T06:27:25.808Z,91.65
2023-01-10T06:29:59.507Z,91.52
2023-01-10T06:32:26.308Z,91.69
2023-01-10T06:35:00.484Z,91.61
2023-01-10T06:37:27.168Z,91.48
2023-01-10T06:40:00.431Z,91.67
2023-01-10T06:42:27.341Z,91.35
2023-01-10T06:45:00.458Z,91.50
2023-01-10T06:47:33.569Z,91.72
2023-01-10T06:50:06.690Z,91.98
2023-01-10T06:52:40.420Z,91.97
2023-01-10T06:55:14.512Z,91.96
2023-01-10T06:57:47.435Z,91.78
2023-01-10T07:00:14.877Z,91.99
2023-01-10T07:02:48.516Z,91.99
2023-01-10T07:05:15.423Z,91.89
2023-01-10T07:07:48.491Z,92.09
2023-01-10T07:10:18.708Z,92.16
2023-01-10T07:12:51.608Z,92.21
2023-01-10T07:15:25.677Z,92.09
2023-01-10T07:17:58.609Z,92.19
2023-01-10T07:20:26.038Z,92.39
2023-01-10T07:23:04.596Z,91.98
2023-01-10T07:25:37.579Z,91.79
2023-01-10T07:28:12.511Z,91.54
2023-01-10T07:30:39.262Z,91.73
2023-01-10T07:33:13.445Z,91.65
2023-01-10T07:35:46.811Z,91.80
2023-01-10T07:38:20.543Z,91.54
2023-01-10T07:40:53.406Z,91.71
2023-01-10T07:43:20.201Z,91.84
2023-01-10T07:45:47.512Z,92.05
2023-01-10T07:48:20.423Z,91.92
2023-01-10T07:50:57.170Z,92.38
2023-01-10T07:53:24.638Z,92.47
2023-01-10T07:55:57.553Z,92.20
2023-01-10T07:58:30.576Z,92.32
2023-01-10T08:01:01.505Z,92.36
2023-01-10T08:03:30.145Z,92.33
2023-01-10T08:06:16.715Z,92.25
2023-01-10T08:08:50.532Z,92.31
2023-01-10T08:11:31.899Z,92.24
2023-01-10T08:14:11.468Z,92.17
2023-01-10T08:16:45.909Z,92.08
2023-01-10T08:19:23.628Z,92.29
2023-01-10T08:21:50.430Z,92.08
2023-01-10T08:24:23.445Z,91.96
2023-01-10T08:26:50.383Z,92.03
2023-01-10T08:29:23.555Z,92.01
2023-01-10T08:31:54.449Z,91.96
2023-01-10T08:34:43.338Z,91.90
2023-01-10T08:37:22.967Z,92.06
2023-01-10T08:39:56.658Z,91.78
2023-01-10T08:42:23.536Z,91.69
2023-01-10T08:44:56.775Z,91.56
2023-01-10T08:47:24.089Z,91.92
2023-01-10T08:49:57.778Z,91.74
2023-01-10T08:52:24.388Z,91.48
2023-01-10T08:54:57.574Z,91.82
2023-01-10T08:57:34.184Z,91.41
2023-01-10T09:00:07.590Z,91.43
2023-01-10T09:02:40.846Z,91.20
2023-01-10T09:05:26.433Z,91.15
2023-01-10T09:08:04.640Z,90.94
2023-01-10T09:10:37.552Z,91.00
2023-01-10T09:13:17.508Z,90.71
2023-01-10T09:15:48.280Z,90.31
2023-01-10T09:18:21.610Z,89.85
2023-01-10T09:20:54.535Z,89.07
2023-01-10T09:23:29.571Z,88.99
2023-01-10T09:25:58.058Z,89.29
2023-01-10T09:28:31.596Z,89.08
2023-01-10T09:31:02.132Z,89.25
2023-01-10T09:33:46.263Z,88.69
2023-01-10T09:36:16.205Z,88.78
2023-01-10T09:38:50.547Z,87.64
2023-01-10T09:41:27.503Z,87.46
2023-01-10T09:44:25.537Z,88.13
2023-01-10T09:47:22.947Z,87.41
2023-01-10T09:50:30.501Z,87.26
2023-01-10T09:53:05.936Z,87.34
2023-01-10T09:55:42.701Z,87.30
2023-01-10T09:58:23.501Z,87.40
2023-01-10T10:01:04.657Z,87.37
2023-01-10T10:03:46.254Z,87.22
2023-01-10T10:06:23.571Z,86.96
2023-01-10T10:08:52.293Z,87.18
2023-01-10T10:11:41.871Z,86.59
2023-01-10T10:14:45.614Z,86.42
2023-01-10T10:17:34.504Z,86.59
2023-01-10T10:20:34.718Z,86.84
2023-01-10T10:23:45.902Z,86.51
2023-01-10T10:27:03.590Z,86.38
2023-01-10T10:30:04.567Z,86.56
2023-01-10T10:32:54.401Z,86.36
2023-01-10T10:35:43.595Z,86.31
2023-01-10T10:38:38.665Z,85.78
2023-01-10T10:41:25.734Z,85.81
2023-01-10T10:44:01.729Z,85.80
2023-01-10T10:46:38.848Z,85.83
2023-01-10T10:49:33.879Z,85.85
2023-01-10T10:52:11.553Z,85.82
2023-01-10T10:54:42.124Z,85.91
2023-01-10T10:57:17.640Z,85.72
2023-01-10T10:59:47.982Z,85.86
2023-01-10T11:02:31.664Z,85.65
2023-01-10T11:05:05.634Z,85.81
2023-01-10T11:07:43.671Z,85.36
2023-01-10T11:10:37.075Z,85.86
2023-01-10T11:13:21.612Z,85.71
2023-01-10T11:16:04.084Z,85.65
2023-01-10T11:18:37.665Z,85.51
2023-01-10T11:21:24.550Z,85.65
2023-01-10T11:24:03.830Z,85.72
2023-01-10T11:26:41.944Z,85.69
2023-01-10T11:29:41.620Z,85.86
2023-01-10T11:32:21.566Z,85.59
2023-01-10T11:35:07.617Z,85.97
2023-01-10T11:37:42.672Z,85.35
2023-01-10T11:40:34.741Z,85.65
2023-01-10T11:43:24.055Z,85.60
2023-01-10T11:46:11.672Z,84.99
2023-01-10T11:49:09.014Z,85.72
2023-01-10T11:51:49.005Z,85.01
2023-01-10T11:54:30.787Z,85.08
2023-01-10T11:57:15.651Z,84.24
2023-01-10T12:00:04.618Z,84.84
2023-01-10T12:02:48.640Z,84.73
2023-01-10T12:05:30.613Z,84.47
2023-01-10T12:08:51.614Z,84.51
2023-01-10T12:11:34.312Z,84.25
2023-01-10T12:14:27.452Z,84.36
2023-01-10T12:17:09.483Z,83.70
2023-01-10T12:19:36.159Z,83.97
2023-01-10T12:22:13.005Z,84.13
2023-01-10T12:24:43.886Z,84.34
2023-01-10T12:27:20.717Z,84.22
2023-01-10T12:30:07.173Z,84.03
2023-01-10T12:32:55.768Z,84.46
2023-01-10T12:35:50.673Z,84.24
2023-01-10T12:39:02.555Z,83.65
2023-01-10T12:42:22.651Z,83.18
2023-01-10T12:45:41.989Z,83.25
2023-01-10T12:48:33.716Z,83.04
2023-01-10T12:51:10.194Z,82.86
2023-01-10T12:53:51.704Z,82.81
2023-01-10T12:56:23.715Z,82.91
2023-01-10T12:59:01.825Z,83.25
2023-01-10T13:01:35.915Z,82.99
2023-01-10T13:04:24.851Z,83.14
2023-01-10T13:06:53.035Z,83.48
2023-01-10T13:09:29.730Z,83.43
2023-01-10T13:12:22.833Z,83.61
2023-01-10T13:15:12.593Z,83.70
2023-01-10T13:17:48.278Z,83.48
2023-01-10T13:20:30.689Z,83.63
2023-01-10T13:23:01.164Z,83.31
2023-01-10T13:25:44.754Z,83.22
2023-01-10T13:28:31.757Z,83.59
2023-01-10T13:31:06.732Z,83.56
2023-01-10T13:33:47.640Z,83.27
2023-01-10T13:36:29.086Z,83.08
2023-01-10T13:39:06.169Z,83.03
2023-01-10T13:42:36.661Z,82.92
2023-01-10T13:45:13.702Z,83.01
2023-01-10T13:47:47.674Z,83.07
2023-01-10T13:50:33.741Z,82.81
2023-01-10T13:53:14.646Z,83.09
2023-01-10T13:55:46.847Z,82.78
2023-01-10T13:58:19.850Z,82.75
2023-01-10T14:01:10.712Z,82.93
2023-01-10T14:04:07.708Z,82.44
2023-01-10T14:06:45.217Z,82.44
2023-01-10T14:09:19.816Z,82.29
2023-01-10T14:11:54.071Z,82.34
2023-01-10T14:14:48.635Z,82.66
2023-01-10T14:17:22.966Z,82.51
2023-01-10T14:20:07.647Z,82.19
2023-01-10T14:22:39.843Z,82.18
2023-01-10T14:25:25.687Z,81.88
2023-01-10T14:28:00.804Z,81.73
2023-01-10T14:30:40.620Z,81.61
2023-01-10T14:33:20.615Z,81.35
2023-01-10T14:35:58.691Z,81.02
2023-01-10T14:38:35.853Z,81.10
2023-01-10T14:41:06.174Z,80.93
2023-01-10T14:43:51.676Z,80.93
2023-01-10T14:46:36.027Z,81.02
2023-01-10T14:49:25.701Z,81.22
2023-01-10T14:52:08.115Z,80.67
2023-01-10T14:54:41.731Z,80.69
2023-01-10T14:57:24.200Z,80.46
2023-01-10T14:59:57.621Z,80.06
2023-01-10T15:02:26.943Z,79.59
2023-01-10T15:05:06.702Z,79.47
2023-01-10T15:07:33.710Z,79.79
2023-01-10T15:10:10.653Z,79.90
2023-01-10T15:12:38.078Z,79.08
2023-01-10T15:15:24.668Z,79.28
2023-01-10T15:17:51.837Z,78.91
2023-01-10T15:20:27.687Z,79.26
2023-01-10T15:23:05.045Z,78.71
2023-01-10T15:25:44.921Z,78.78
2023-01-10T15:28:26.739Z,78.77
2023-01-10T15:31:05.715Z,78.85
2023-01-10T15:33:41.732Z,79.06
2023-01-10T15:36:25.600Z,79.01
2023-01-10T15:38:54.507Z,79.19
2023-01-10T15:41:31.055Z,79.22
2023-01-10T15:44:38.304Z,79.05
2023-01-10T15:47:13.784Z,79.04
2023-01-10T15:49:46.795Z,79.36
2023-01-10T15:52:23.923Z,79.25
2023-01-10T15:54:57.748Z,79.92
2023-01-10T15:57:39.750Z,78.95
2023-01-10T16:00:19.848Z,78.70
2023-01-10T16:02:55.082Z,78.28
2023-01-10T16:05:22.999Z,78.53
2023-01-10T16:07:56.707Z,78.12
2023-01-10T16:10:26.866Z,76.00
2023-01-10T16:13:33.810Z,76.59
2023-01-10T16:16:19.280Z,77.83
2023-01-10T16:18:46.266Z,78.66
2023-01-10T16:21:22.096Z,78.54
2023-01-10T16:23:49.939Z,79.67
2023-01-10T16:26:24.748Z,80.32
2023-01-10T16:28:57.680Z,79.98
2023-01-10T16:31:32.970Z,81.11
2023-01-10T16:34:06.757Z,80.94
2023-01-10T16:36:39.834Z,81.96
2023-01-10T16:39:13.303Z,82.26
2023-01-10T16:42:05.981Z,82.63
2023-01-10T16:44:34.700Z,83.21
2023-01-10T16:47:08.809Z,83.35
2023-01-10T16:49:35.620Z,83.97
2023-01-10T16:52:03.692Z,83.90
2023-01-10T16:54:37.815Z,84.48
2023-01-10T16:57:04.752Z,84.98
2023-01-10T16:59:37.791Z,85.09
2023-01-10T17:02:16.856Z,85.69
2023-01-10T17:04:49.758Z,85.73
2023-01-10T17:07:16.467Z,86.64
2023-01-10T17:09:49.794Z,87.07
2023-01-10T17:12:19.520Z,87.26
2023-01-10T17:14:59.713Z,87.23
2023-01-10T17:17:33.862Z,87.33
2023-01-10T17:20:06.763Z,87.20
2023-01-10T17:22:33.652Z,87.32
2023-01-10T17:25:06.789Z,87.53
2023-01-10T17:27:40.748Z,87.89
2023-01-10T17:30:15.866Z,87.78
2023-01-10T17:32:48.809Z,88.18
2023-01-10T17:35:15.644Z,88.15
2023-01-10T17:37:49.742Z,88.63
2023-01-10T17:40:16.598Z,88.65
2023-01-10T17:42:49.811Z,88.52
2023-01-10T17:45:16.698Z,88.70
2023-01-10T17:47:49.909Z,88.83
2023-01-10T17:50:16.650Z,88.69
2023-01-10T17:52:49.812Z,89.02
2023-01-10T17:55:16.621Z,89.26
2023-01-10T17:57:50.075Z,89.70
2023-01-10T18:00:24.758Z,89.60
2023-01-10T18:02:51.537Z,90.04
2023-01-10T18:05:24.854Z,90.29
2023-01-10T18:07:51.904Z,90.37
2023-01-10T18:10:25.775Z,90.27
2023-01-10T18:12:52.537Z,90.25
2023-01-10T18:15:32.801Z,90.03
2023-01-10T18:17:59.807Z,90.58
2023-01-10T18:20:34.785Z,90.49
2023-01-10T18:23:20.492Z,90.79
2023-01-10T18:26:10.268Z,90.63
2023-01-10T18:28:46.422Z,90.90
2023-01-10T18:31:28.490Z,90.96
2023-01-10T18:33:56.554Z,90.97
2023-01-10T18:36:38.956Z,91.08
2023-01-10T18:39:12.780Z,91.23
2023-01-10T18:41:48.334Z,91.56
2023-01-10T18:44:15.342Z,91.23
2023-01-10T18:46:48.819Z,91.12
2023-01-10T18:49:23.867Z,90.92
2023-01-10T18:51:50.919Z,90.64
2023-01-10T18:54:30.161Z,90.68
2023-01-10T18:57:05.784Z,90.73
2023-01-10T18:59:32.625Z,90.62
2023-01-10T19:02:05.941Z,91.04
2023-01-10T19:04:40.875Z,90.74
2023-01-10T19:07:14.889Z,91.05
2023-01-10T19:09:51.095Z,90.99
2023-01-10T19:12:17.880Z,90.95
2023-01-10T19:14:57.828Z,91.15
2023-01-10T19:17:31.162Z,90.97
2023-01-10T19:20:04.818Z,91.12
2023-01-10T19:22:31.573Z,90.81
2023-01-10T19:25:04.861Z,91.00
2023-01-10T19:27:31.561Z,90.84
2023-01-10T19:30:04.818Z,90.76
2023-01-10T19:32:34.712Z,90.60
2023-01-10T19:35:01.687Z,90.78
2023-01-10T19:37:34.864Z,91.04
2023-01-10T19:40:01.750Z,91.21
2023-01-10T19:42:34.957Z,91.21
2023-01-10T19:45:01.733Z,91.17
2023-01-10T19:47:36.046Z,91.19
2023-01-10T19:50:02.827Z,90.81
2023-01-10T19:52:29.650Z,91.08
2023-01-10T19:55:02.787Z,91.22
2023-01-10T19:57:29.623Z,91.02
2023-01-10T20:00:03.879Z,91.46
2023-01-10T20:02:30.748Z,91.28
2023-01-10T20:05:03.772Z,91.47
2023-01-10T20:07:30.511Z,91.49
2023-01-10T20:09:58.076Z,91.46
2023-01-10T20:12:31.856Z,91.29
2023-01-10T20:15:05.624Z,91.34
2023-01-10T20:17:39.847Z,91.23
2023-01-10T20:20:06.996Z,91.29
2023-01-10T20:22:39.903Z,91.12
2023-01-10T20:25:13.905Z,91.03
2023-01-10T20:27:46.944Z,91.10
2023-01-10T20:30:18.846Z,90.82
2023-01-10T20:32:54.324Z,90.82
2023-01-10T20:35:22.212Z,90.50
2023-01-10T20:37:55.731Z,90.49
2023-01-10T20:40:25.154Z,90.16
2023-01-10T20:43:01.813Z,90.31
2023-01-10T20:45:28.525Z,90.32
2023-01-10T20:48:01.880Z,89.97
2023-01-10T20:50:28.530Z,90.10
2023-01-10T20:53:01.896Z,89.98
2023-01-10T20:55:28.793Z,89.92
2023-01-10T20:58:01.882Z,90.21
2023-01-10T21:00:34.809Z,90.20
2023-01-10T21:03:18.748Z,90.12
2023-01-10T21:06:01.116Z,90.19
2023-01-10T21:08:29.855Z,90.57
2023-01-10T21:11:04.981Z,90.37
2023-01-10T21:13:32.381Z,90.29
2023-01-10T21:16:15.921Z,90.25
2023-01-10T21:18:44.592Z,90.42
2023-01-10T21:21:21.045Z,90.35
2023-01-10T21:23:53.848Z,90.42
2023-01-10T21:26:26.932Z,90.42
2023-01-10T21:28:59.851Z,90.38
2023-01-10T21:31:27.223Z,90.63
2023-01-10T21:34:01.082Z,90.66
2023-01-10T21:36:36.007Z,89.98
2023-01-10T21:39:08.863Z,90.19
2023-01-10T21:42:00.257Z,89.89
2023-01-10T21:44:34.150Z,90.18
2023-01-10T21:47:08.877Z,90.12
2023-01-10T21:49:41.836Z,89.71
2023-01-10T21:52:08.594Z,90.09
2023-01-10T21:54:44.040Z,90.05
2023-01-10T21:57:10.877Z,89.60
2023-01-10T21:59:47.835Z,89.30
2023-01-10T22:02:16.925Z,89.00
2023-01-10T22:04:58.874Z,89.31
2023-01-10T22:07:32.420Z,89.37
2023-01-10T22:10:05.875Z,89.76
2023-01-10T22:12:32.760Z,90.23
2023-01-10T22:15:05.895Z,90.33
2023-01-10T22:17:34.024Z,90.52
2023-01-10T22:20:06.892Z,90.73
2023-01-10T22:22:33.611Z,91.14
2023-01-10T22:25:06.997Z,91.39
2023-01-10T22:27:39.830Z,91.67
2023-01-10T22:30:07.262Z,91.73
2023-01-10T22:32:40.902Z,91.70
2023-01-10T22:35:08.298Z,91.98
2023-01-10T22:37:41.919Z,91.65
2023-01-10T22:40:09.409Z,92.24
2023-01-10T22:42:47.185Z,92.03
2023-01-10T22:45:17.049Z,92.18
2023-01-10T22:47:50.899Z,92.06
2023-01-10T22:50:18.425Z,92.20
2023-01-10T22:52:54.904Z,92.54
2023-01-10T22:55:21.701Z,92.27
2023-01-10T22:57:54.891Z,92.48
2023-01-10T23:00:28.868Z,92.46
2023-01-10T23:03:01.916Z,92.35
2023-01-10T23:05:36.078Z,92.67
2023-01-10T23:08:03.187Z,92.86
2023-01-10T23:10:36.838Z,92.50
2023-01-10T23:13:05.178Z,92.65
2023-01-10T23:15:38.844Z,92.71
2023-01-10T23:18:05.869Z,92.86
2023-01-10T23:20:42.116Z,92.76
2023-01-10T23:23:08.950Z,92.80
2023-01-10T23:25:42.959Z,92.82
2023-01-10T23:28:09.640Z,92.58
2023-01-10T23:30:46.532Z,92.81
2023-01-10T23:33:13.353Z,92.68
2023-01-10T23:35:47.334Z,92.18
2023-01-10T23:38:20.844Z,92.62
2023-01-10T23:40:50.629Z,92.47
2023-01-10T23:43:23.889Z,92.88
2023-01-10T23:45:59.019Z,92.54
2023-01-10T23:48:25.801Z,92.55
2023-01-10T23:51:02.644Z,92.62
2023-01-10T23:53:35.910Z,92.59
2023-01-10T23:56:16.816Z,92.62
2023-01-10T23:58:49.912Z,92.90
